sensor_id;sensor_type;location;lat;lon;timestamp;temperature;humidity
12264;DHT22;6194;49.010;8.414;2023-07-16T00:00:59;18.80;99.90
12264;DHT22;6194;49.010;8.414;2023-07-16T00:03:24;18.80;99.90
12264;DHT22;6194;49.010;8.414;2023-07-16T00:05:51;18.80;99.90
12264;DHT22;6194;49.010;8.414;2023-07-16T00:08:16;18.80;99.90
12264;DHT22;6194;49.010;8.414;2023-07-16T00:10:42;18.80;99.90
12264;DHT22;6194;49.010;8.414;2023-07-16T00:13:08;18.80;99.90
12264;DHT22;6194;49.010;8.414;2023-07-16T00:15:33;18.80;99.90
12264;DHT22;6194;49.010;8.414;2023-07-16T00:17:59;18.70;99.90
12264;DHT22;6194;49.010;8.414;2023-07-16T00:20:24;18.70;99.90
12264;DHT22;6194;49.010;8.414;2023-07-16T00:22:51;18.70;99.90
12264;DHT22;6194;49.010;8.414;2023-07-16T00:25:16;18.70;99.90
12264;DHT22;6194;49.010;8.414;2023-07-16T00:27:42;18.60;99.90
12264;DHT22;6194;49.010;8.414;2023-07-16T00:30:08;18.60;99.90
12264;DHT22;6194;49.010;8.414;2023-07-16T00:32:34;18.60;99.90
12264;DHT22;6194;49.010;8.414;2023-07-16T00:35:01;18.60;99.90
12264;DHT22;6194;49.010;8.414;2023-07-16T00:37:26;18.50;99.90
12264;DHT22;6194;49.010;8.414;2023-07-16T00:39:52;18.50;99.90
12264;DHT22;6194;49.010;8.414;2023-07-16T00:42:18;18.40;99.90
12264;DHT22;6194;49.010;8.414;2023-07-16T00:44:43;18.50;99.90
12264;DHT22;6194;49.010;8.414;2023-07-16T00:47:09;18.40;99.90
12264;DHT22;6194;49.010;8.414;2023-07-16T00:49:36;18.40;99.90
12264;DHT22;6194;49.010;8.414;2023-07-16T00:52:02;18.40;99.90
12264;DHT22;6194;49.010;8.414;2023-07-16T00:54:29;18.30;99.90
12264;DHT22;6194;49.010;8.414;2023-07-16T00:56:56;18.30;99.90
12264;DHT22;6194;49.010;8.414;2023-07-16T00:59:21;18.30;99.90
12264;DHT22;6194;49.010;8.414;2023-07-16T01:01:47;18.20;99.90
12264;DHT22;6194;49.010;8.414;2023-07-16T01:04:13;18.20;99.90
12264;DHT22;6194;49.010;8.414;2023-07-16T01:06:41;18.10;99.90
12264;DHT22;6194;49.010;8.414;2023-07-16T01:09:18;18.10;99.90
12264;DHT22;6194;49.010;8.414;2023-07-16T01:11:45;18.10;99.90
12264;DHT22;6194;49.010;8.414;2023-07-16T01:14:12;18.10;99.90
12264;DHT22;6194;49.010;8.414;2023-07-16T01:16:38;18.20;99.90
12264;DHT22;6194;49.010;8.414;2023-07-16T01:19:04;18.10;99.90
12264;DHT22;6194;49.010;8.414;2023-07-16T01:30:27;17.90;99.90
12264;DHT22;6194;49.010;8.414;2023-07-16T01:32:55;18.00;99.90
12264;DHT22;6194;49.010;8.414;2023-07-16T01:35:22;17.90;99.90
12264;DHT22;6194;49.010;8.414;2023-07-16T01:37:48;17.90;99.90
12264;DHT22;6194;49.010;8.414;2023-07-16T01:40:14;17.90;99.90
12264;DHT22;6194;49.010;8.414;2023-07-16T01:42:40;17.80;99.90
12264;DHT22;6194;49.010;8.414;2023-07-16T01:45:06;17.80;99.90
12264;DHT22;6194;49.010;8.414;2023-07-16T01:50:22;17.70;99.90
12264;DHT22;6194;49.010;8.414;2023-07-16T01:52:47;17.70;99.90
12264;DHT22;6194;49.010;8.414;2023-07-16T01:55:13;17.70;99.90
12264;DHT22;6194;49.010;8.414;2023-07-16T01:57:39;17.60;99.90
12264;DHT22;6194;49.010;8.414;2023-07-16T02:00:05;17.60;99.90
12264;DHT22;6194;49.010;8.414;2023-07-16T02:02:31;17.70;99.90
12264;DHT22;6194;49.010;8.414;2023-07-16T02:04:56;17.80;99.90
12264;DHT22;6194;49.010;8.414;2023-07-16T02:07:22;17.80;99.90
12264;DHT22;6194;49.010;8.414;2023-07-16T02:09:49;18.10;99.90
12264;DHT22;6194;49.010;8.414;2023-07-16T02:12:15;17.90;99.90
12264;DHT22;6194;49.010;8.414;2023-07-16T02:14:40;17.90;99.90
12264;DHT22;6194;49.010;8.414;2023-07-16T02:17:06;18.10;99.90
12264;DHT22;6194;49.010;8.414;2023-07-16T02:19:32;17.80;99.90
12264;DHT22;6194;49.010;8.414;2023-07-16T02:21:57;17.70;99.90
12264;DHT22;6194;49.010;8.414;2023-07-16T02:24:23;17.70;99.90
12264;DHT22;6194;49.010;8.414;2023-07-16T02:26:48;17.60;99.90
12264;DHT22;6194;49.010;8.414;2023-07-16T02:29:14;17.60;99.90
12264;DHT22;6194;49.010;8.414;2023-07-16T02:31:40;17.60;99.90
12264;DHT22;6194;49.010;8.414;2023-07-16T02:34:05;17.50;99.90
12264;DHT22;6194;49.010;8.414;2023-07-16T02:36:31;17.60;99.90
12264;DHT22;6194;49.010;8.414;2023-07-16T02:38:56;17.50;99.90
12264;DHT22;6194;49.010;8.414;2023-07-16T02:41:22;17.50;99.90
12264;DHT22;6194;49.010;8.414;2023-07-16T02:43:47;17.50;99.90
12264;DHT22;6194;49.010;8.414;2023-07-16T02:46:13;17.50;99.90
12264;DHT22;6194;49.010;8.414;2023-07-16T02:48:39;17.50;99.90
12264;DHT22;6194;49.010;8.414;2023-07-16T02:51:04;17.50;99.90
12264;DHT22;6194;49.010;8.414;2023-07-16T02:53:30;17.70;99.90
12264;DHT22;6194;49.010;8.414;2023-07-16T02:55:55;17.50;99.90
12264;DHT22;6194;49.010;8.414;2023-07-16T02:58:21;17.60;99.90
12264;DHT22;6194;49.010;8.414;2023-07-16T03:00:46;17.50;99.90
12264;DHT22;6194;49.010;8.414;2023-07-16T03:03:12;17.60;99.90
12264;DHT22;6194;49.010;8.414;2023-07-16T03:05:37;17.60;99.90
12264;DHT22;6194;49.010;8.414;2023-07-16T03:08:03;17.60;99.90
12264;DHT22;6194;49.010;8.414;2023-07-16T03:10:29;17.60;99.90
12264;DHT22;6194;49.010;8.414;2023-07-16T03:12:54;17.50;99.90
12264;DHT22;6194;49.010;8.414;2023-07-16T03:15:20;17.40;99.90
12264;DHT22;6194;49.010;8.414;2023-07-16T03:17:46;17.40;99.90
12264;DHT22;6194;49.010;8.414;2023-07-16T03:20:11;17.40;99.90
12264;DHT22;6194;49.010;8.414;2023-07-16T03:22:38;17.50;99.90
12264;DHT22;6194;49.010;8.414;2023-07-16T03:25:04;17.50;99.90
12264;DHT22;6194;49.010;8.414;2023-07-16T03:27:30;17.50;99.90
12264;DHT22;6194;49.010;8.414;2023-07-16T03:29:56;17.60;99.90
12264;DHT22;6194;49.010;8.414;2023-07-16T03:32:22;17.50;99.90
12264;DHT22;6194;49.010;8.414;2023-07-16T03:34:48;17.60;99.90
12264;DHT22;6194;49.010;8.414;2023-07-16T03:37:13;17.70;99.90
12264;DHT22;6194;49.010;8.414;2023-07-16T03:39:39;17.70;99.90
12264;DHT22;6194;49.010;8.414;2023-07-16T03:42:05;17.70;99.90
12264;DHT22;6194;49.010;8.414;2023-07-16T03:44:30;17.70;99.90
12264;DHT22;6194;49.010;8.414;2023-07-16T03:46:56;17.80;99.90
12264;DHT22;6194;49.010;8.414;2023-07-16T03:49:21;17.80;99.90
12264;DHT22;6194;49.010;8.414;2023-07-16T03:51:47;17.90;99.90
12264;DHT22;6194;49.010;8.414;2023-07-16T03:54:12;17.80;99.90
12264;DHT22;6194;49.010;8.414;2023-07-16T03:56:38;17.70;99.90
12264;DHT22;6194;49.010;8.414;2023-07-16T03:59:03;17.80;99.90
12264;DHT22;6194;49.010;8.414;2023-07-16T04:01:29;17.80;99.90
12264;DHT22;6194;49.010;8.414;2023-07-16T04:03:55;17.70;99.90
12264;DHT22;6194;49.010;8.414;2023-07-16T04:06:20;17.70;99.90
12264;DHT22;6194;49.010;8.414;2023-07-16T04:08:46;17.70;99.90
12264;DHT22;6194;49.010;8.414;2023-07-16T04:11:11;17.70;99.90
12264;DHT22;6194;49.010;8.414;2023-07-16T04:13:37;17.80;99.90
12264;DHT22;6194;49.010;8.414;2023-07-16T04:16:03;17.70;99.90
12264;DHT22;6194;49.010;8.414;2023-07-16T04:18:28;17.80;99.90
12264;DHT22;6194;49.010;8.414;2023-07-16T04:20:54;17.70;99.90
12264;DHT22;6194;49.010;8.414;2023-07-16T04:23:20;17.70;99.90
12264;DHT22;6194;49.010;8.414;2023-07-16T04:25:45;17.90;99.90
12264;DHT22;6194;49.010;8.414;2023-07-16T04:28:12;17.70;99.90
12264;DHT22;6194;49.010;8.414;2023-07-16T04:30:37;17.70;99.90
12264;DHT22;6194;49.010;8.414;2023-07-16T04:33:04;17.80;99.90
12264;DHT22;6194;49.010;8.414;2023-07-16T04:35:30;17.90;99.90
12264;DHT22;6194;49.010;8.414;2023-07-16T04:37:55;17.90;99.90
12264;DHT22;6194;49.010;8.414;2023-07-16T04:40:21;18.00;99.90
12264;DHT22;6194;49.010;8.414;2023-07-16T04:42:46;18.00;99.90
12264;DHT22;6194;49.010;8.414;2023-07-16T04:45:12;18.10;99.90
12264;DHT22;6194;49.010;8.414;2023-07-16T04:47:38;18.10;99.90
12264;DHT22;6194;49.010;8.414;2023-07-16T04:50:04;18.10;99.90
12264;DHT22;6194;49.010;8.414;2023-07-16T04:52:30;18.10;99.90
12264;DHT22;6194;49.010;8.414;2023-07-16T04:54:55;18.40;99.90
12264;DHT22;6194;49.010;8.414;2023-07-16T04:57:21;18.30;99.90
12264;DHT22;6194;49.010;8.414;2023-07-16T04:59:47;18.60;99.90
12264;DHT22;6194;49.010;8.414;2023-07-16T05:02:12;18.90;99.90
12264;DHT22;6194;49.010;8.414;2023-07-16T05:04:39;19.40;99.90
12264;DHT22;6194;49.010;8.414;2023-07-16T05:07:05;19.50;99.90
12264;DHT22;6194;49.010;8.414;2023-07-16T05:09:30;19.40;99.90
12264;DHT22;6194;49.010;8.414;2023-07-16T05:11:56;19.20;99.90
12264;DHT22;6194;49.010;8.414;2023-07-16T05:14:22;19.20;99.90
12264;DHT22;6194;49.010;8.414;2023-07-16T05:16:47;19.30;99.90
12264;DHT22;6194;49.010;8.414;2023-07-16T05:19:13;19.10;99.90
12264;DHT22;6194;49.010;8.414;2023-07-16T05:21:38;18.90;99.90
12264;DHT22;6194;49.010;8.414;2023-07-16T05:24:04;18.90;99.90
12264;DHT22;6194;49.010;8.414;2023-07-16T05:26:30;19.40;99.90
12264;DHT22;6194;49.010;8.414;2023-07-16T05:28:56;19.70;99.90
12264;DHT22;6194;49.010;8.414;2023-07-16T05:31:22;19.80;99.90
12264;DHT22;6194;49.010;8.414;2023-07-16T05:33:47;19.70;99.90
12264;DHT22;6194;49.010;8.414;2023-07-16T05:36:13;19.50;99.90
12264;DHT22;6194;49.010;8.414;2023-07-16T05:38:38;19.40;99.90
12264;DHT22;6194;49.010;8.414;2023-07-16T05:41:04;19.00;99.90
12264;DHT22;6194;49.010;8.414;2023-07-16T05:43:31;19.00;99.90
12264;DHT22;6194;49.010;8.414;2023-07-16T05:45:56;18.90;99.90
12264;DHT22;6194;49.010;8.414;2023-07-16T05:48:23;19.20;99.90
12264;DHT22;6194;49.010;8.414;2023-07-16T05:50:49;19.30;99.90
12264;DHT22;6194;49.010;8.414;2023-07-16T05:53:14;19.20;99.90
12264;DHT22;6194;49.010;8.414;2023-07-16T05:55:40;19.60;99.90
12264;DHT22;6194;49.010;8.414;2023-07-16T05:58:06;19.60;99.90
12264;DHT22;6194;49.010;8.414;2023-07-16T06:00:31;19.50;99.90
12264;DHT22;6194;49.010;8.414;2023-07-16T06:02:57;19.60;99.90
12264;DHT22;6194;49.010;8.414;2023-07-16T06:05:23;20.10;99.90
12264;DHT22;6194;49.010;8.414;2023-07-16T06:07:51;20.60;99.90
12264;DHT22;6194;49.010;8.414;2023-07-16T06:10:17;22.10;99.90
12264;DHT22;6194;49.010;8.414;2023-07-16T06:12:42;23.00;99.90
12264;DHT22;6194;49.010;8.414;2023-07-16T06:15:08;24.10;99.90
12264;DHT22;6194;49.010;8.414;2023-07-16T06:17:34;25.10;99.90
12264;DHT22;6194;49.010;8.414;2023-07-16T06:20:00;25.60;99.90
12264;DHT22;6194;49.010;8.414;2023-07-16T06:22:25;25.90;99.90
12264;DHT22;6194;49.010;8.414;2023-07-16T06:24:51;26.60;99.90
12264;DHT22;6194;49.010;8.414;2023-07-16T06:27:16;27.50;99.90
12264;DHT22;6194;49.010;8.414;2023-07-16T06:29:42;27.30;99.90
12264;DHT22;6194;49.010;8.414;2023-07-16T06:32:08;27.60;99.90
12264;DHT22;6194;49.010;8.414;2023-07-16T06:34:33;28.30;99.90
12264;DHT22;6194;49.010;8.414;2023-07-16T06:36:59;28.50;99.90
12264;DHT22;6194;49.010;8.414;2023-07-16T06:39:25;28.80;99.90
12264;DHT22;6194;49.010;8.414;2023-07-16T06:41:50;29.40;99.90
12264;DHT22;6194;49.010;8.414;2023-07-16T06:44:16;29.40;99.90
12264;DHT22;6194;49.010;8.414;2023-07-16T06:46:42;29.10;99.90
12264;DHT22;6194;49.010;8.414;2023-07-16T06:49:08;28.70;99.90
12264;DHT22;6194;49.010;8.414;2023-07-16T06:51:33;28.30;99.90
12264;DHT22;6194;49.010;8.414;2023-07-16T06:53:59;27.30;99.90
12264;DHT22;6194;49.010;8.414;2023-07-16T06:56:25;27.60;99.90
12264;DHT22;6194;49.010;8.414;2023-07-16T06:58:50;28.20;99.90
12264;DHT22;6194;49.010;8.414;2023-07-16T07:01:16;27.80;99.90
12264;DHT22;6194;49.010;8.414;2023-07-16T07:03:42;27.90;99.90
12264;DHT22;6194;49.010;8.414;2023-07-16T07:06:07;28.30;99.90
12264;DHT22;6194;49.010;8.414;2023-07-16T07:08:36;28.10;99.90
12264;DHT22;6194;49.010;8.414;2023-07-16T07:11:01;28.90;99.90
12264;DHT22;6194;49.010;8.414;2023-07-16T07:13:27;29.70;99.90
12264;DHT22;6194;49.010;8.414;2023-07-16T07:15:55;30.30;99.90
12264;DHT22;6194;49.010;8.414;2023-07-16T07:18:20;29.60;99.90
12264;DHT22;6194;49.010;8.414;2023-07-16T07:20:46;29.40;99.90
12264;DHT22;6194;49.010;8.414;2023-07-16T07:23:13;28.70;99.90
12264;DHT22;6194;49.010;8.414;2023-07-16T07:25:38;26.90;99.90
12264;DHT22;6194;49.010;8.414;2023-07-16T07:28:04;25.90;99.90
12264;DHT22;6194;49.010;8.414;2023-07-16T07:30:30;24.90;99.90
12264;DHT22;6194;49.010;8.414;2023-07-16T07:32:55;24.40;99.90
12264;DHT22;6194;49.010;8.414;2023-07-16T07:35:21;23.90;99.90
12264;DHT22;6194;49.010;8.414;2023-07-16T07:37:47;23.50;99.90
12264;DHT22;6194;49.010;8.414;2023-07-16T07:40:13;23.40;99.90
12264;DHT22;6194;49.010;8.414;2023-07-16T07:42:39;23.90;99.90
12264;DHT22;6194;49.010;8.414;2023-07-16T07:45:05;23.90;99.90
12264;DHT22;6194;49.010;8.414;2023-07-16T07:47:30;24.00;99.90
12264;DHT22;6194;49.010;8.414;2023-07-16T07:49:56;24.50;99.90
12264;DHT22;6194;49.010;8.414;2023-07-16T07:52:21;24.90;99.90
12264;DHT22;6194;49.010;8.414;2023-07-16T07:54:47;25.10;99.90
12264;DHT22;6194;49.010;8.414;2023-07-16T07:57:14;26.20;99.90
12264;DHT22;6194;49.010;8.414;2023-07-16T07:59:40;27.30;99.90
12264;DHT22;6194;49.010;8.414;2023-07-16T08:02:06;29.10;99.90
12264;DHT22;6194;49.010;8.414;2023-07-16T08:04:31;30.60;99.90
12264;DHT22;6194;49.010;8.414;2023-07-16T08:06:57;29.80;99.90
12264;DHT22;6194;49.010;8.414;2023-07-16T08:09:25;28.20;99.90
12264;DHT22;6194;49.010;8.414;2023-07-16T08:11:51;26.90;99.90
12264;DHT22;6194;49.010;8.414;2023-07-16T08:14:16;27.00;99.90
12264;DHT22;6194;49.010;8.414;2023-07-16T08:16:42;26.70;99.90
12264;DHT22;6194;49.010;8.414;2023-07-16T08:19:07;25.80;99.90
12264;DHT22;6194;49.010;8.414;2023-07-16T08:21:33;24.70;99.90
12264;DHT22;6194;49.010;8.414;2023-07-16T08:23:59;24.10;99.90
12264;DHT22;6194;49.010;8.414;2023-07-16T08:26:25;24.30;99.90
12264;DHT22;6194;49.010;8.414;2023-07-16T08:28:50;24.00;99.90
12264;DHT22;6194;49.010;8.414;2023-07-16T08:31:16;23.60;99.90
12264;DHT22;6194;49.010;8.414;2023-07-16T08:33:41;23.30;99.90
12264;DHT22;6194;49.010;8.414;2023-07-16T08:36:07;23.00;99.90
12264;DHT22;6194;49.010;8.414;2023-07-16T08:38:32;22.80;99.90
12264;DHT22;6194;49.010;8.414;2023-07-16T08:41:00;23.00;99.90
12264;DHT22;6194;49.010;8.414;2023-07-16T08:43:26;23.10;99.90
12264;DHT22;6194;49.010;8.414;2023-07-16T08:45:52;22.80;99.90
12264;DHT22;6194;49.010;8.414;2023-07-16T08:48:18;22.40;99.90
12264;DHT22;6194;49.010;8.414;2023-07-16T08:50:47;22.30;99.90
12264;DHT22;6194;49.010;8.414;2023-07-16T08:53:15;22.20;99.90
12264;DHT22;6194;49.010;8.414;2023-07-16T08:55:45;22.20;99.90
12264;DHT22;6194;49.010;8.414;2023-07-16T08:58:14;22.40;99.90
12264;DHT22;6194;49.010;8.414;2023-07-16T09:00:42;22.50;99.90
12264;DHT22;6194;49.010;8.414;2023-07-16T09:03:12;22.70;99.90
12264;DHT22;6194;49.010;8.414;2023-07-16T09:05:44;22.90;99.90
12264;DHT22;6194;49.010;8.414;2023-07-16T09:08:10;23.00;99.90
12264;DHT22;6194;49.010;8.414;2023-07-16T09:10:36;22.90;99.90
12264;DHT22;6194;49.010;8.414;2023-07-16T09:13:02;23.00;99.90
12264;DHT22;6194;49.010;8.414;2023-07-16T09:15:29;23.20;99.90
12264;DHT22;6194;49.010;8.414;2023-07-16T09:17:55;24.10;99.90
12264;DHT22;6194;49.010;8.414;2023-07-16T09:20:22;24.60;99.90
12264;DHT22;6194;49.010;8.414;2023-07-16T09:22:54;24.90;99.90
12264;DHT22;6194;49.010;8.414;2023-07-16T09:25:40;25.40;99.90
12264;DHT22;6194;49.010;8.414;2023-07-16T09:28:07;25.50;99.90
12264;DHT22;6194;49.010;8.414;2023-07-16T09:30:33;25.80;99.90
12264;DHT22;6194;49.010;8.414;2023-07-16T09:33:20;25.80;99.90
12264;DHT22;6194;49.010;8.414;2023-07-16T09:35:50;25.60;99.90
12264;DHT22;6194;49.010;8.414;2023-07-16T09:38:16;25.00;99.90
12264;DHT22;6194;49.010;8.414;2023-07-16T09:40:42;25.40;99.90
12264;DHT22;6194;49.010;8.414;2023-07-16T09:43:09;25.10;99.90
12264;DHT22;6194;49.010;8.414;2023-07-16T09:45:36;24.90;99.90
12264;DHT22;6194;49.010;8.414;2023-07-16T09:48:03;25.20;99.90
12264;DHT22;6194;49.010;8.414;2023-07-16T09:50:31;25.80;99.90
12264;DHT22;6194;49.010;8.414;2023-07-16T09:52:57;25.60;99.90
12264;DHT22;6194;49.010;8.414;2023-07-16T09:55:24;25.40;99.90
12264;DHT22;6194;49.010;8.414;2023-07-16T09:57:52;25.20;99.90
12264;DHT22;6194;49.010;8.414;2023-07-16T10:00:19;25.40;99.90
12264;DHT22;6194;49.010;8.414;2023-07-16T10:02:47;25.30;99.90
12264;DHT22;6194;49.010;8.414;2023-07-16T10:05:28;25.40;99.90
12264;DHT22;6194;49.010;8.414;2023-07-16T10:07:58;25.20;99.90
12264;DHT22;6194;49.010;8.414;2023-07-16T10:10:41;25.60;99.90
12264;DHT22;6194;49.010;8.414;2023-07-16T10:13:07;25.60;99.90
12264;DHT22;6194;49.010;8.414;2023-07-16T10:15:34;25.50;99.90
12264;DHT22;6194;49.010;8.414;2023-07-16T10:18:00;25.20;99.90
12264;DHT22;6194;49.010;8.414;2023-07-16T10:22:59;25.40;99.90
12264;DHT22;6194;49.010;8.414;2023-07-16T10:25:35;26.00;99.90
12264;DHT22;6194;49.010;8.414;2023-07-16T10:28:00;26.20;99.90
12264;DHT22;6194;49.010;8.414;2023-07-16T10:30:26;26.70;99.90
12264;DHT22;6194;49.010;8.414;2023-07-16T10:32:52;26.70;99.90
12264;DHT22;6194;49.010;8.414;2023-07-16T10:35:18;26.50;99.90
12264;DHT22;6194;49.010;8.414;2023-07-16T10:37:44;26.60;99.90
12264;DHT22;6194;49.010;8.414;2023-07-16T10:40:11;26.70;99.90
12264;DHT22;6194;49.010;8.414;2023-07-16T10:42:37;26.30;99.90
12264;DHT22;6194;49.010;8.414;2023-07-16T10:45:05;26.00;99.90
12264;DHT22;6194;49.010;8.414;2023-07-16T10:49:57;25.50;99.90
12264;DHT22;6194;49.010;8.414;2023-07-16T10:52:24;25.30;99.90
12264;DHT22;6194;49.010;8.414;2023-07-16T10:54:50;25.20;99.90
12264;DHT22;6194;49.010;8.414;2023-07-16T10:57:20;25.10;99.90
12264;DHT22;6194;49.010;8.414;2023-07-16T10:59:45;25.10;99.90
12264;DHT22;6194;49.010;8.414;2023-07-16T11:02:15;24.90;99.90
12264;DHT22;6194;49.010;8.414;2023-07-16T11:04:42;24.80;99.90
12264;DHT22;6194;49.010;8.414;2023-07-16T11:07:09;24.80;99.90
12264;DHT22;6194;49.010;8.414;2023-07-16T11:09:51;25.10;99.90
12264;DHT22;6194;49.010;8.414;2023-07-16T11:12:22;25.20;99.90
12264;DHT22;6194;49.010;8.414;2023-07-16T11:14:50;25.50;99.90
12264;DHT22;6194;49.010;8.414;2023-07-16T11:17:16;26.20;99.90
12264;DHT22;6194;49.010;8.414;2023-07-16T11:19:45;26.00;99.90
12264;DHT22;6194;49.010;8.414;2023-07-16T11:22:11;26.00;99.90
12264;DHT22;6194;49.010;8.414;2023-07-16T11:24:42;26.00;99.90
12264;DHT22;6194;49.010;8.414;2023-07-16T11:29:54;25.80;99.90
12264;DHT22;6194;49.010;8.414;2023-07-16T11:34:55;25.10;99.90
12264;DHT22;6194;49.010;8.414;2023-07-16T11:37:24;25.00;99.90
12264;DHT22;6194;49.010;8.414;2023-07-16T11:39:50;24.90;99.90
12264;DHT22;6194;49.010;8.414;2023-07-16T11:42:44;24.90;99.90
12264;DHT22;6194;49.010;8.414;2023-07-16T11:45:21;25.10;99.90
12264;DHT22;6194;49.010;8.414;2023-07-16T11:47:53;25.20;99.90
12264;DHT22;6194;49.010;8.414;2023-07-16T11:50:19;25.00;99.90
12264;DHT22;6194;49.010;8.414;2023-07-16T11:52:55;24.80;99.90
12264;DHT22;6194;49.010;8.414;2023-07-16T11:55:22;24.70;99.90
12264;DHT22;6194;49.010;8.414;2023-07-16T11:57:47;24.60;99.90
12264;DHT22;6194;49.010;8.414;2023-07-16T12:00:13;24.60;99.90
12264;DHT22;6194;49.010;8.414;2023-07-16T12:02:39;24.70;99.90
12264;DHT22;6194;49.010;8.414;2023-07-16T12:05:05;24.80;99.90
12264;DHT22;6194;49.010;8.414;2023-07-16T12:07:39;24.70;99.90
12264;DHT22;6194;49.010;8.414;2023-07-16T12:10:06;24.70;99.90
12264;DHT22;6194;49.010;8.414;2023-07-16T12:12:32;24.90;99.90
12264;DHT22;6194;49.010;8.414;2023-07-16T12:14:59;25.20;99.90
12264;DHT22;6194;49.010;8.414;2023-07-16T12:17:25;25.50;99.90
12264;DHT22;6194;49.010;8.414;2023-07-16T12:19:50;25.60;99.90
12264;DHT22;6194;49.010;8.414;2023-07-16T12:22:17;25.90;99.90
12264;DHT22;6194;49.010;8.414;2023-07-16T12:24:43;25.60;99.90
12264;DHT22;6194;49.010;8.414;2023-07-16T12:27:09;25.60;99.90
12264;DHT22;6194;49.010;8.414;2023-07-16T12:29:35;25.60;99.90
12264;DHT22;6194;49.010;8.414;2023-07-16T12:32:00;25.70;99.90
12264;DHT22;6194;49.010;8.414;2023-07-16T12:34:26;26.00;99.90
12264;DHT22;6194;49.010;8.414;2023-07-16T12:36:51;26.30;99.90
12264;DHT22;6194;49.010;8.414;2023-07-16T12:39:18;26.20;99.90
12264;DHT22;6194;49.010;8.414;2023-07-16T12:41:44;26.20;99.90
12264;DHT22;6194;49.010;8.414;2023-07-16T12:44:10;26.10;99.90
12264;DHT22;6194;49.010;8.414;2023-07-16T12:46:35;26.10;99.90
12264;DHT22;6194;49.010;8.414;2023-07-16T12:49:01;26.00;99.90
12264;DHT22;6194;49.010;8.414;2023-07-16T12:51:26;26.00;99.90
12264;DHT22;6194;49.010;8.414;2023-07-16T12:53:52;25.80;99.90
12264;DHT22;6194;49.010;8.414;2023-07-16T12:56:17;25.40;99.90
12264;DHT22;6194;49.010;8.414;2023-07-16T12:58:44;25.40;99.90
12264;DHT22;6194;49.010;8.414;2023-07-16T13:01:13;25.50;99.90
12264;DHT22;6194;49.010;8.414;2023-07-16T13:03:38;25.50;99.90
12264;DHT22;6194;49.010;8.414;2023-07-16T13:06:04;25.40;99.90
12264;DHT22;6194;49.010;8.414;2023-07-16T13:08:30;25.40;99.90
12264;DHT22;6194;49.010;8.414;2023-07-16T13:10:56;25.30;99.90
12264;DHT22;6194;49.010;8.414;2023-07-16T13:13:22;25.30;99.90
12264;DHT22;6194;49.010;8.414;2023-07-16T13:15:48;25.20;99.90
12264;DHT22;6194;49.010;8.414;2023-07-16T13:18:13;25.10;99.90
12264;DHT22;6194;49.010;8.414;2023-07-16T13:20:39;25.10;99.90
12264;DHT22;6194;49.010;8.414;2023-07-16T13:23:05;25.20;99.90
12264;DHT22;6194;49.010;8.414;2023-07-16T13:25:31;25.40;99.90
12264;DHT22;6194;49.010;8.414;2023-07-16T13:27:56;25.50;99.90
12264;DHT22;6194;49.010;8.414;2023-07-16T13:30:22;25.40;99.90
12264;DHT22;6194;49.010;8.414;2023-07-16T13:32:48;25.40;99.90
12264;DHT22;6194;49.010;8.414;2023-07-16T13:35:17;25.20;99.90
12264;DHT22;6194;49.010;8.414;2023-07-16T13:37:43;25.30;99.90
12264;DHT22;6194;49.010;8.414;2023-07-16T13:40:12;25.40;99.90
12264;DHT22;6194;49.010;8.414;2023-07-16T13:42:37;25.20;99.90
12264;DHT22;6194;49.010;8.414;2023-07-16T13:45:04;25.20;99.90
12264;DHT22;6194;49.010;8.414;2023-07-16T13:47:30;25.00;99.90
12264;DHT22;6194;49.010;8.414;2023-07-16T13:49:56;25.10;99.90
12264;DHT22;6194;49.010;8.414;2023-07-16T13:52:21;25.50;99.90
12264;DHT22;6194;49.010;8.414;2023-07-16T13:54:47;25.50;99.90
12264;DHT22;6194;49.010;8.414;2023-07-16T13:57:12;25.60;99.90
12264;DHT22;6194;49.010;8.414;2023-07-16T13:59:38;25.90;99.90
12264;DHT22;6194;49.010;8.414;2023-07-16T14:02:04;26.10;99.90
12264;DHT22;6194;49.010;8.414;2023-07-16T14:04:30;26.10;99.90
12264;DHT22;6194;49.010;8.414;2023-07-16T14:06:55;25.90;99.90
12264;DHT22;6194;49.010;8.414;2023-07-16T14:09:22;25.90;99.90
12264;DHT22;6194;49.010;8.414;2023-07-16T14:11:48;26.30;99.90
12264;DHT22;6194;49.010;8.414;2023-07-16T14:14:14;26.50;99.60
12264;DHT22;6194;49.010;8.414;2023-07-16T14:16:40;26.50;99.80
12264;DHT22;6194;49.010;8.414;2023-07-16T14:19:06;26.10;99.70
12264;DHT22;6194;49.010;8.414;2023-07-16T14:21:31;25.90;99.60
12264;DHT22;6194;49.010;8.414;2023-07-16T14:23:57;25.90;99.60
12264;DHT22;6194;49.010;8.414;2023-07-16T14:26:23;26.20;99.40
12264;DHT22;6194;49.010;8.414;2023-07-16T14:28:48;26.20;99.40
12264;DHT22;6194;49.010;8.414;2023-07-16T14:31:14;26.20;99.50
12264;DHT22;6194;49.010;8.414;2023-07-16T14:33:39;26.10;99.90
12264;DHT22;6194;49.010;8.414;2023-07-16T14:36:05;26.10;99.50
12264;DHT22;6194;49.010;8.414;2023-07-16T14:38:31;26.20;99.10
12264;DHT22;6194;49.010;8.414;2023-07-16T14:40:56;26.20;99.40
12264;DHT22;6194;49.010;8.414;2023-07-16T14:43:22;26.20;99.50
12264;DHT22;6194;49.010;8.414;2023-07-16T14:45:47;26.60;99.30
12264;DHT22;6194;49.010;8.414;2023-07-16T14:48:13;26.90;98.90
12264;DHT22;6194;49.010;8.414;2023-07-16T14:50:39;27.10;98.70
12264;DHT22;6194;49.010;8.414;2023-07-16T14:53:05;27.30;98.30
12264;DHT22;6194;49.010;8.414;2023-07-16T14:55:31;27.10;97.80
12264;DHT22;6194;49.010;8.414;2023-07-16T14:57:56;26.80;98.20
12264;DHT22;6194;49.010;8.414;2023-07-16T15:00:22;26.80;97.90
12264;DHT22;6194;49.010;8.414;2023-07-16T15:02:48;26.50;98.40
12264;DHT22;6194;49.010;8.414;2023-07-16T15:05:14;26.20;98.20
12264;DHT22;6194;49.010;8.414;2023-07-16T15:07:39;26.30;98.60
12264;DHT22;6194;49.010;8.414;2023-07-16T15:10:05;26.50;98.10
12264;DHT22;6194;49.010;8.414;2023-07-16T15:12:31;26.50;97.90
12264;DHT22;6194;49.010;8.414;2023-07-16T15:14:57;26.50;98.10
12264;DHT22;6194;49.010;8.414;2023-07-16T15:17:23;26.40;98.10
12264;DHT22;6194;49.010;8.414;2023-07-16T15:19:49;26.30;98.00
12264;DHT22;6194;49.010;8.414;2023-07-16T15:22:16;26.30;97.90
12264;DHT22;6194;49.010;8.414;2023-07-16T15:24:44;26.60;97.70
12264;DHT22;6194;49.010;8.414;2023-07-16T15:27:09;26.50;97.80
12264;DHT22;6194;49.010;8.414;2023-07-16T15:29:35;26.60;98.20
12264;DHT22;6194;49.010;8.414;2023-07-16T15:32:00;26.80;97.70
12264;DHT22;6194;49.010;8.414;2023-07-16T15:34:26;27.00;97.60
12264;DHT22;6194;49.010;8.414;2023-07-16T15:36:52;26.90;97.90
12264;DHT22;6194;49.010;8.414;2023-07-16T15:39:17;26.90;97.50
12264;DHT22;6194;49.010;8.414;2023-07-16T15:41:44;27.00;97.60
12264;DHT22;6194;49.010;8.414;2023-07-16T15:44:10;27.00;97.60
12264;DHT22;6194;49.010;8.414;2023-07-16T15:46:36;27.00;97.50
12264;DHT22;6194;49.010;8.414;2023-07-16T15:49:04;26.70;97.50
12264;DHT22;6194;49.010;8.414;2023-07-16T15:51:30;26.60;97.60
12264;DHT22;6194;49.010;8.414;2023-07-16T15:53:56;26.40;97.60
12264;DHT22;6194;49.010;8.414;2023-07-16T15:56:23;26.30;97.60
12264;DHT22;6194;49.010;8.414;2023-07-16T15:58:49;26.40;98.10
12264;DHT22;6194;49.010;8.414;2023-07-16T16:01:14;26.70;97.30